Update 08.04.19 Menü aufgeräumt und Stützis neue Wetterseite verlinkt
Besuchen Sie den Menüpunkt "Almanach / History" hier gibt es viele interessante Statistiken aus den Daten meiner Wetterstation (seit 2011)

Rindlberg West Mehr Informationen Rindlberg West


Stuetzi - Rindlberg Ost Mehr Informationen Stuetzi - Rindlberg Ost


Regenradar Mehr Informationen rain snow radar


Sie finden meine Wetter-Infos auch auf:

Weather Underground

AWEKAS



METAR-Meldungen aus der Umgebung

   
LOWL - Linz
Aktualisierung: 17-09-2019 17:50
Teilweise bewölkt  
Teilweise bewölkt  
   Wind: WNW 25.9 km/h
Wind: WNW 25.9 km/h
Temperatur: 19°C
Taupunkt: 12°C
Luftfeuchte: 64%
Luftdruck: 1016 hPa
Wolken: Teilweise bewölkt
Sichtbarkeit: Mehr als 10 km
Bewölkung: leicht bewölkt 2500 ft,
Teilweise bewölkt 30000 ft
LOWL 171550Z 29014KT 250V320 9999 FEW025 SCT300 19/12 Q1016 NOSIG
LOWW - Vienna
Aktualisierung: 17-09-2019 17:50
Stark bewölkt  
Stark bewölkt  
   Wind: NW 9.3 km/h
Wind: NW 9.3 km/h
Temperatur: 18°C
Taupunkt: 13°C
Luftfeuchte: 73%
Luftdruck: 1014 hPa
Wolken: Stark bewölkt
Sichtbarkeit: Mehr als 10 km
Bewölkung: leicht bewölkt 2500 ft,
Teilweise bewölkt 6000 ft,
Stark bewölkt 30000 ft
LOWW 171550Z 32005KT 9999 FEW025 SCT060 BKN300 18/13 Q1014 NOSIG
 

Script entwickelt von  Saratoga-weather.org Angepasst für das Template von  Weerstation Leuven